sensor_id;sensor_type;location;lat;lon;timestamp;temperature;humidity
56300;DHT22;42209;6.376;-10.782;2023-01-28T00:01:15;22.70;48.10
56300;DHT22;42209;6.376;-10.782;2023-01-28T00:03:43;22.60;47.40
56300;DHT22;42209;6.376;-10.782;2023-01-28T00:06:14;22.60;46.30
56300;DHT22;42209;6.376;-10.782;2023-01-28T00:08:42;22.50;46.00
56300;DHT22;42209;6.376;-10.782;2023-01-28T00:11:12;22.50;45.30
56300;DHT22;42209;6.376;-10.782;2023-01-28T00:13:40;22.40;44.90
56300;DHT22;42209;6.376;-10.782;2023-01-28T00:16:08;22.40;46.20
56300;DHT22;42209;6.376;-10.782;2023-01-28T00:18:37;22.60;50.60
56300;DHT22;42209;6.376;-10.782;2023-01-28T00:21:08;22.80;53.50
56300;DHT22;42209;6.376;-10.782;2023-01-28T00:23:38;23.00;56.10
56300;DHT22;42209;6.376;-10.782;2023-01-28T00:26:10;23.10;57.80
56300;DHT22;42209;6.376;-10.782;2023-01-28T00:28:43;23.20;59.60
56300;DHT22;42209;6.376;-10.782;2023-01-28T00:31:16;23.30;60.70
56300;DHT22;42209;6.376;-10.782;2023-01-28T00:33:46;23.40;61.00
56300;DHT22;42209;6.376;-10.782;2023-01-28T00:36:16;23.40;61.40
56300;DHT22;42209;6.376;-10.782;2023-01-28T00:38:50;23.60;60.40
56300;DHT22;42209;6.376;-10.782;2023-01-28T00:41:20;23.40;55.00
56300;DHT22;42209;6.376;-10.782;2023-01-28T00:43:50;23.20;52.70
56300;DHT22;42209;6.376;-10.782;2023-01-28T00:46:20;23.00;51.30
56300;DHT22;42209;6.376;-10.782;2023-01-28T00:48:48;22.80;49.80
56300;DHT22;42209;6.376;-10.782;2023-01-28T00:51:18;22.70;48.80
56300;DHT22;42209;6.376;-10.782;2023-01-28T00:53:48;22.60;48.30
56300;DHT22;42209;6.376;-10.782;2023-01-28T00:56:17;22.70;53.30
56300;DHT22;42209;6.376;-10.782;2023-01-28T00:58:46;22.90;57.00
56300;DHT22;42209;6.376;-10.782;2023-01-28T01:01:33;23.00;59.10
56300;DHT22;42209;6.376;-10.782;2023-01-28T01:04:02;23.20;61.20
56300;DHT22;42209;6.376;-10.782;2023-01-28T01:06:38;23.20;62.30
56300;DHT22;42209;6.376;-10.782;2023-01-28T01:09:09;23.30;63.40
56300;DHT22;42209;6.376;-10.782;2023-01-28T01:11:40;23.40;63.50
56300;DHT22;42209;6.376;-10.782;2023-01-28T01:14:09;23.60;63.70
56300;DHT22;42209;6.376;-10.782;2023-01-28T01:16:39;23.60;59.70
56300;DHT22;42209;6.376;-10.782;2023-01-28T01:19:07;23.40;55.80
56300;DHT22;42209;6.376;-10.782;2023-01-28T01:21:36;23.10;53.80
56300;DHT22;42209;6.376;-10.782;2023-01-28T01:24:04;22.90;52.20
56300;DHT22;42209;6.376;-10.782;2023-01-28T01:26:33;22.80;50.70
56300;DHT22;42209;6.376;-10.782;2023-01-28T01:29:01;22.70;49.80
56300;DHT22;42209;6.376;-10.782;2023-01-28T01:31:29;22.60;49.30
56300;DHT22;42209;6.376;-10.782;2023-01-28T01:33:59;22.50;47.70
56300;DHT22;42209;6.376;-10.782;2023-01-28T01:36:27;22.50;46.80
56300;DHT22;42209;6.376;-10.782;2023-01-28T01:38:57;22.50;47.30
56300;DHT22;42209;6.376;-10.782;2023-01-28T01:41:30;22.70;52.40
56300;DHT22;42209;6.376;-10.782;2023-01-28T01:44:01;22.90;55.50
56300;DHT22;42209;6.376;-10.782;2023-01-28T01:46:48;23.00;57.70
56300;DHT22;42209;6.376;-10.782;2023-01-28T01:49:28;23.10;59.40
56300;DHT22;42209;6.376;-10.782;2023-01-28T01:51:57;23.20;61.60
56300;DHT22;42209;6.376;-10.782;2023-01-28T01:54:29;23.20;62.90
56300;DHT22;42209;6.376;-10.782;2023-01-28T01:57:00;23.30;63.80
56300;DHT22;42209;6.376;-10.782;2023-01-28T01:59:31;23.50;64.30
56300;DHT22;42209;6.376;-10.782;2023-01-28T02:02:03;23.60;62.20
56300;DHT22;42209;6.376;-10.782;2023-01-28T02:04:38;23.40;57.00
56300;DHT22;42209;6.376;-10.782;2023-01-28T02:07:08;23.20;54.60
56300;DHT22;42209;6.376;-10.782;2023-01-28T02:09:39;23.00;53.40
56300;DHT22;42209;6.376;-10.782;2023-01-28T02:12:11;22.80;51.70
56300;DHT22;42209;6.376;-10.782;2023-01-28T02:14:53;22.70;50.70
56300;DHT22;42209;6.376;-10.782;2023-01-28T02:17:25;22.60;49.60
56300;DHT22;42209;6.376;-10.782;2023-01-28T02:20:02;22.50;48.80
56300;DHT22;42209;6.376;-10.782;2023-01-28T02:28:36;22.40;46.20
56300;DHT22;42209;6.376;-10.782;2023-01-28T02:34:01;22.50;50.90
56300;DHT22;42209;6.376;-10.782;2023-01-28T02:37:13;22.70;54.50
56300;DHT22;42209;6.376;-10.782;2023-01-28T02:39:52;22.80;57.70
56300;DHT22;42209;6.376;-10.782;2023-01-28T02:42:26;22.90;59.90
56300;DHT22;42209;6.376;-10.782;2023-01-28T02:44:56;23.00;61.30
56300;DHT22;42209;6.376;-10.782;2023-01-28T02:47:25;23.10;62.60
56300;DHT22;42209;6.376;-10.782;2023-01-28T02:49:54;23.20;63.50
56300;DHT22;42209;6.376;-10.782;2023-01-28T02:59:02;23.50;61.10
56300;DHT22;42209;6.376;-10.782;2023-01-28T03:01:38;23.30;56.30
56300;DHT22;42209;6.376;-10.782;2023-01-28T03:06:46;22.80;52.80
56300;DHT22;42209;6.376;-10.782;2023-01-28T03:09:18;22.60;52.20
56300;DHT22;42209;6.376;-10.782;2023-01-28T03:14:21;22.50;49.30
56300;DHT22;42209;6.376;-10.782;2023-01-28T03:16:51;22.50;51.90
56300;DHT22;42209;6.376;-10.782;2023-01-28T03:19:21;22.70;57.00
56300;DHT22;42209;6.376;-10.782;2023-01-28T03:21:50;22.80;59.50
56300;DHT22;42209;6.376;-10.782;2023-01-28T03:24:31;22.90;61.40
56300;DHT22;42209;6.376;-10.782;2023-01-28T03:27:18;23.10;63.00
56300;DHT22;42209;6.376;-10.782;2023-01-28T03:29:59;23.20;64.60
56300;DHT22;42209;6.376;-10.782;2023-01-28T03:32:30;23.20;65.60
56300;DHT22;42209;6.376;-10.782;2023-01-28T03:34:59;23.30;66.00
56300;DHT22;42209;6.376;-10.782;2023-01-28T03:37:27;23.40;66.20
56300;DHT22;42209;6.376;-10.782;2023-01-28T03:40:11;23.50;65.10
56300;DHT22;42209;6.376;-10.782;2023-01-28T03:42:42;23.30;58.90
56300;DHT22;42209;6.376;-10.782;2023-01-28T03:45:29;23.10;56.50
56300;DHT22;42209;6.376;-10.782;2023-01-28T03:47:59;22.80;54.80
56300;DHT22;42209;6.376;-10.782;2023-01-28T03:50:27;22.70;53.70
56300;DHT22;42209;6.376;-10.782;2023-01-28T03:52:59;22.60;52.50
56300;DHT22;42209;6.376;-10.782;2023-01-28T03:55:30;22.50;51.70
56300;DHT22;42209;6.376;-10.782;2023-01-28T03:57:58;22.50;50.50
56300;DHT22;42209;6.376;-10.782;2023-01-28T04:00:26;22.40;49.70
56300;DHT22;42209;6.376;-10.782;2023-01-28T04:02:55;22.50;53.90
56300;DHT22;42209;6.376;-10.782;2023-01-28T04:05:24;22.60;57.60
56300;DHT22;42209;6.376;-10.782;2023-01-28T04:07:55;22.80;60.40
56300;DHT22;42209;6.376;-10.782;2023-01-28T04:10:43;22.90;62.00
56300;DHT22;42209;6.376;-10.782;2023-01-28T04:13:19;23.00;64.00
56300;DHT22;42209;6.376;-10.782;2023-01-28T04:15:48;23.10;65.20
56300;DHT22;42209;6.376;-10.782;2023-01-28T04:18:17;23.20;65.90
56300;DHT22;42209;6.376;-10.782;2023-01-28T04:20:48;23.20;66.30
56300;DHT22;42209;6.376;-10.782;2023-01-28T04:23:17;23.30;66.70
56300;DHT22;42209;6.376;-10.782;2023-01-28T04:25:49;23.40;66.20
56300;DHT22;42209;6.376;-10.782;2023-01-28T04:28:19;23.50;64.40
56300;DHT22;42209;6.376;-10.782;2023-01-28T04:30:50;23.30;59.20
56300;DHT22;42209;6.376;-10.782;2023-01-28T04:33:54;23.10;56.90
56300;DHT22;42209;6.376;-10.782;2023-01-28T04:36:42;22.80;54.40
56300;DHT22;42209;6.376;-10.782;2023-01-28T04:39:29;22.70;52.60
56300;DHT22;42209;6.376;-10.782;2023-01-28T04:42:16;22.50;51.00
56300;DHT22;42209;6.376;-10.782;2023-01-28T04:44:55;22.50;53.50
56300;DHT22;42209;6.376;-10.782;2023-01-28T04:47:55;22.70;58.40
56300;DHT22;42209;6.376;-10.782;2023-01-28T04:50:37;22.80;61.10
56300;DHT22;42209;6.376;-10.782;2023-01-28T04:53:19;22.90;62.90
56300;DHT22;42209;6.376;-10.782;2023-01-28T04:55:56;23.10;64.60
56300;DHT22;42209;6.376;-10.782;2023-01-28T04:58:28;23.10;65.70
56300;DHT22;42209;6.376;-10.782;2023-01-28T05:01:01;23.20;66.60
56300;DHT22;42209;6.376;-10.782;2023-01-28T05:03:30;23.30;67.00
56300;DHT22;42209;6.376;-10.782;2023-01-28T05:06:03;23.40;67.20
56300;DHT22;42209;6.376;-10.782;2023-01-28T05:08:39;23.50;66.80
56300;DHT22;42209;6.376;-10.782;2023-01-28T05:11:09;23.50;62.50
56300;DHT22;42209;6.376;-10.782;2023-01-28T05:13:37;23.30;58.60
56300;DHT22;42209;6.376;-10.782;2023-01-28T05:16:07;23.00;56.50
56300;DHT22;42209;6.376;-10.782;2023-01-28T05:18:36;22.80;54.70
56300;DHT22;42209;6.376;-10.782;2023-01-28T05:21:09;22.70;56.60
56300;DHT22;42209;6.376;-10.782;2023-01-28T05:23:39;22.90;61.90
56300;DHT22;42209;6.376;-10.782;2023-01-28T05:26:07;23.00;63.80
56300;DHT22;42209;6.376;-10.782;2023-01-28T05:28:36;23.00;65.10
56300;DHT22;42209;6.376;-10.782;2023-01-28T05:31:05;23.10;66.90
56300;DHT22;42209;6.376;-10.782;2023-01-28T05:33:33;23.20;67.90
56300;DHT22;42209;6.376;-10.782;2023-01-28T05:36:04;23.30;68.70
56300;DHT22;42209;6.376;-10.782;2023-01-28T05:38:33;23.40;68.50
56300;DHT22;42209;6.376;-10.782;2023-01-28T05:41:01;23.50;68.70
56300;DHT22;42209;6.376;-10.782;2023-01-28T05:43:31;23.50;63.90
56300;DHT22;42209;6.376;-10.782;2023-01-28T05:46:13;23.30;59.90
56300;DHT22;42209;6.376;-10.782;2023-01-28T05:49:13;23.00;57.40
56300;DHT22;42209;6.376;-10.782;2023-01-28T05:52:17;22.80;55.20
56300;DHT22;42209;6.376;-10.782;2023-01-28T05:54:46;22.60;53.20
56300;DHT22;42209;6.376;-10.782;2023-01-28T05:57:14;22.50;53.60
56300;DHT22;42209;6.376;-10.782;2023-01-28T05:59:42;22.70;58.90
56300;DHT22;42209;6.376;-10.782;2023-01-28T06:02:11;22.80;61.60
56300;DHT22;42209;6.376;-10.782;2023-01-28T06:04:41;22.90;63.70
56300;DHT22;42209;6.376;-10.782;2023-01-28T06:07:10;23.00;65.30
56300;DHT22;42209;6.376;-10.782;2023-01-28T06:09:38;23.10;66.40
56300;DHT22;42209;6.376;-10.782;2023-01-28T06:12:08;23.20;67.70
56300;DHT22;42209;6.376;-10.782;2023-01-28T06:14:50;23.20;68.50
56300;DHT22;42209;6.376;-10.782;2023-01-28T06:17:36;23.30;69.00
56300;DHT22;42209;6.376;-10.782;2023-01-28T06:20:08;23.30;68.80
56300;DHT22;42209;6.376;-10.782;2023-01-28T06:22:38;23.50;68.90
56300;DHT22;42209;6.376;-10.782;2023-01-28T06:25:07;23.50;64.60
56300;DHT22;42209;6.376;-10.782;2023-01-28T06:27:36;23.20;60.30
56300;DHT22;42209;6.376;-10.782;2023-01-28T06:30:04;22.90;57.70
56300;DHT22;42209;6.376;-10.782;2023-01-28T06:32:33;22.70;56.00
56300;DHT22;42209;6.376;-10.782;2023-01-28T06:35:01;22.60;58.60
56300;DHT22;42209;6.376;-10.782;2023-01-28T06:37:29;22.70;62.60
56300;DHT22;42209;6.376;-10.782;2023-01-28T06:39:58;22.90;65.20
56300;DHT22;42209;6.376;-10.782;2023-01-28T06:42:26;23.00;66.40
56300;DHT22;42209;6.376;-10.782;2023-01-28T06:44:54;23.10;67.50
56300;DHT22;42209;6.376;-10.782;2023-01-28T06:47:23;23.10;68.50
56300;DHT22;42209;6.376;-10.782;2023-01-28T06:49:51;23.20;69.40
56300;DHT22;42209;6.376;-10.782;2023-01-28T06:52:19;23.30;69.80
56300;DHT22;42209;6.376;-10.782;2023-01-28T06:54:47;23.40;69.50
56300;DHT22;42209;6.376;-10.782;2023-01-28T06:57:15;23.50;69.50
56300;DHT22;42209;6.376;-10.782;2023-01-28T06:59:44;23.40;64.70
56300;DHT22;42209;6.376;-10.782;2023-01-28T07:02:12;23.20;60.40
56300;DHT22;42209;6.376;-10.782;2023-01-28T07:04:40;22.90;58.40
56300;DHT22;42209;6.376;-10.782;2023-01-28T07:07:08;22.70;57.10
56300;DHT22;42209;6.376;-10.782;2023-01-28T07:09:37;22.70;62.20
56300;DHT22;42209;6.376;-10.782;2023-01-28T07:12:05;22.90;65.10
56300;DHT22;42209;6.376;-10.782;2023-01-28T07:14:33;23.00;66.50
56300;DHT22;42209;6.376;-10.782;2023-01-28T07:17:02;23.10;68.10
56300;DHT22;42209;6.376;-10.782;2023-01-28T07:19:30;23.10;69.30
56300;DHT22;42209;6.376;-10.782;2023-01-28T07:21:58;23.20;70.50
56300;DHT22;42209;6.376;-10.782;2023-01-28T07:24:27;23.30;71.00
56300;DHT22;42209;6.376;-10.782;2023-01-28T07:26:56;23.30;70.70
56300;DHT22;42209;6.376;-10.782;2023-01-28T07:29:24;23.40;70.50
56300;DHT22;42209;6.376;-10.782;2023-01-28T07:31:52;23.50;67.30
56300;DHT22;42209;6.376;-10.782;2023-01-28T07:34:20;23.30;61.90
56300;DHT22;42209;6.376;-10.782;2023-01-28T07:36:49;23.10;59.70
56300;DHT22;42209;6.376;-10.782;2023-01-28T07:39:17;22.80;57.80
56300;DHT22;42209;6.376;-10.782;2023-01-28T07:41:45;22.70;56.00
56300;DHT22;42209;6.376;-10.782;2023-01-28T07:44:30;22.50;56.20
56300;DHT22;42209;6.376;-10.782;2023-01-28T07:46:59;22.70;61.50
56300;DHT22;42209;6.376;-10.782;2023-01-28T07:49:27;22.80;64.20
56300;DHT22;42209;6.376;-10.782;2023-01-28T07:51:55;22.90;65.70
56300;DHT22;42209;6.376;-10.782;2023-01-28T07:54:23;23.00;67.00
56300;DHT22;42209;6.376;-10.782;2023-01-28T07:56:52;23.10;68.10
56300;DHT22;42209;6.376;-10.782;2023-01-28T07:59:21;23.10;69.50
56300;DHT22;42209;6.376;-10.782;2023-01-28T08:01:49;23.20;70.40
56300;DHT22;42209;6.376;-10.782;2023-01-28T08:04:20;23.20;70.80
56300;DHT22;42209;6.376;-10.782;2023-01-28T08:06:48;23.30;70.90
56300;DHT22;42209;6.376;-10.782;2023-01-28T08:09:16;23.40;70.60
56300;DHT22;42209;6.376;-10.782;2023-01-28T08:11:45;23.40;67.30
56300;DHT22;42209;6.376;-10.782;2023-01-28T08:14:13;23.20;62.00
56300;DHT22;42209;6.376;-10.782;2023-01-28T08:16:41;22.90;60.30
56300;DHT22;42209;6.376;-10.782;2023-01-28T08:19:10;22.70;58.30
56300;DHT22;42209;6.376;-10.782;2023-01-28T08:21:38;22.60;56.60
56300;DHT22;42209;6.376;-10.782;2023-01-28T08:24:06;22.60;60.20
56300;DHT22;42209;6.376;-10.782;2023-01-28T08:26:35;22.70;64.40
56300;DHT22;42209;6.376;-10.782;2023-01-28T08:29:03;22.80;66.40
56300;DHT22;42209;6.376;-10.782;2023-01-28T08:31:32;23.00;67.70
56300;DHT22;42209;6.376;-10.782;2023-01-28T08:34:00;23.00;68.80
56300;DHT22;42209;6.376;-10.782;2023-01-28T08:36:28;23.10;70.00
56300;DHT22;42209;6.376;-10.782;2023-01-28T08:38:57;23.10;70.90
56300;DHT22;42209;6.376;-10.782;2023-01-28T08:41:25;23.20;72.10
56300;DHT22;42209;6.376;-10.782;2023-01-28T08:43:53;23.30;73.10
56300;DHT22;42209;6.376;-10.782;2023-01-28T08:46:21;23.40;73.00
56300;DHT22;42209;6.376;-10.782;2023-01-28T08:48:50;23.40;67.20
56300;DHT22;42209;6.376;-10.782;2023-01-28T08:51:19;23.20;63.10
56300;DHT22;42209;6.376;-10.782;2023-01-28T08:53:47;22.90;60.90
56300;DHT22;42209;6.376;-10.782;2023-01-28T08:56:15;22.70;58.80
56300;DHT22;42209;6.376;-10.782;2023-01-28T08:58:44;22.70;61.60
56300;DHT22;42209;6.376;-10.782;2023-01-28T09:01:12;22.80;66.00
56300;DHT22;42209;6.376;-10.782;2023-01-28T09:03:40;22.90;68.10
56300;DHT22;42209;6.376;-10.782;2023-01-28T09:06:09;23.10;69.40
56300;DHT22;42209;6.376;-10.782;2023-01-28T09:08:37;23.10;70.50
56300;DHT22;42209;6.376;-10.782;2023-01-28T09:11:06;23.40;71.90
56300;DHT22;42209;6.376;-10.782;2023-01-28T09:13:34;23.70;71.20
56300;DHT22;42209;6.376;-10.782;2023-01-28T09:16:05;23.90;71.90
56300;DHT22;42209;6.376;-10.782;2023-01-28T09:18:34;24.00;71.10
56300;DHT22;42209;6.376;-10.782;2023-01-28T09:21:06;24.20;70.90
56300;DHT22;42209;6.376;-10.782;2023-01-28T09:23:35;24.30;71.30
56300;DHT22;42209;6.376;-10.782;2023-01-28T09:26:05;24.40;72.40
56300;DHT22;42209;6.376;-10.782;2023-01-28T09:28:34;24.50;73.10
56300;DHT22;42209;6.376;-10.782;2023-01-28T09:31:08;24.50;73.10
56300;DHT22;42209;6.376;-10.782;2023-01-28T09:33:38;24.40;73.20
56300;DHT22;42209;6.376;-10.782;2023-01-28T09:36:09;24.40;72.50
56300;DHT22;42209;6.376;-10.782;2023-01-28T09:38:38;24.40;71.90
56300;DHT22;42209;6.376;-10.782;2023-01-28T09:41:28;24.40;72.00
56300;DHT22;42209;6.376;-10.782;2023-01-28T09:46:48;24.40;72.20
56300;DHT22;42209;6.376;-10.782;2023-01-28T09:51:49;24.60;71.90
56300;DHT22;42209;6.376;-10.782;2023-01-28T09:54:39;24.60;72.20
56300;DHT22;42209;6.376;-10.782;2023-01-28T09:57:45;24.70;73.10
56300;DHT22;42209;6.376;-10.782;2023-01-28T10:00:34;24.80;74.40
56300;DHT22;42209;6.376;-10.782;2023-01-28T10:03:29;24.80;75.40
56300;DHT22;42209;6.376;-10.782;2023-01-28T10:09:13;24.90;77.80
56300;DHT22;42209;6.376;-10.782;2023-01-28T10:12:07;25.00;78.70
56300;DHT22;42209;6.376;-10.782;2023-01-28T10:17:25;25.00;79.80
56300;DHT22;42209;6.376;-10.782;2023-01-28T10:19:58;25.10;81.60
56300;DHT22;42209;6.376;-10.782;2023-01-28T10:22:36;25.10;82.00
56300;DHT22;42209;6.376;-10.782;2023-01-28T10:25:29;25.10;82.70
56300;DHT22;42209;6.376;-10.782;2023-01-28T10:28:00;25.20;83.70
56300;DHT22;42209;6.376;-10.782;2023-01-28T10:30:31;25.20;84.40
56300;DHT22;42209;6.376;-10.782;2023-01-28T10:33:05;25.30;85.00
56300;DHT22;42209;6.376;-10.782;2023-01-28T10:35:40;25.30;85.30
56300;DHT22;42209;6.376;-10.782;2023-01-28T10:38:14;25.30;84.70
56300;DHT22;42209;6.376;-10.782;2023-01-28T10:40:43;24.70;78.30
56300;DHT22;42209;6.376;-10.782;2023-01-28T10:43:18;24.20;74.70
56300;DHT22;42209;6.376;-10.782;2023-01-28T10:45:56;23.90;72.10
56300;DHT22;42209;6.376;-10.782;2023-01-28T10:48:32;23.60;69.90
56300;DHT22;42209;6.376;-10.782;2023-01-28T10:51:03;23.30;68.40
56300;DHT22;42209;6.376;-10.782;2023-01-28T10:53:53;23.20;67.50
56300;DHT22;42209;6.376;-10.782;2023-01-28T10:56:30;23.10;66.20
56300;DHT22;42209;6.376;-10.782;2023-01-28T10:59:20;23.10;69.60
56300;DHT22;42209;6.376;-10.782;2023-01-28T11:02:02;23.40;74.00
56300;DHT22;42209;6.376;-10.782;2023-01-28T11:04:33;23.60;76.10
56300;DHT22;42209;6.376;-10.782;2023-01-28T11:07:21;23.60;70.50
56300;DHT22;42209;6.376;-10.782;2023-01-28T11:09:51;23.40;68.10
56300;DHT22;42209;6.376;-10.782;2023-01-28T11:12:25;23.20;65.90
56300;DHT22;42209;6.376;-10.782;2023-01-28T11:14:57;23.00;65.00
56300;DHT22;42209;6.376;-10.782;2023-01-28T11:17:28;22.90;66.60
56300;DHT22;42209;6.376;-10.782;2023-01-28T11:20:08;23.10;71.80
56300;DHT22;42209;6.376;-10.782;2023-01-28T11:22:43;23.40;74.30
56300;DHT22;42209;6.376;-10.782;2023-01-28T11:25:33;23.60;71.90
56300;DHT22;42209;6.376;-10.782;2023-01-28T11:28:06;23.40;67.50
56300;DHT22;42209;6.376;-10.782;2023-01-28T11:30:37;23.10;65.90
56300;DHT22;42209;6.376;-10.782;2023-01-28T11:33:33;22.90;65.20
56300;DHT22;42209;6.376;-10.782;2023-01-28T11:36:06;22.80;66.60
56300;DHT22;42209;6.376;-10.782;2023-01-28T11:38:35;23.10;72.10
56300;DHT22;42209;6.376;-10.782;2023-01-28T11:41:15;23.40;74.50
56300;DHT22;42209;6.376;-10.782;2023-01-28T11:43:43;23.50;71.30
56300;DHT22;42209;6.376;-10.782;2023-01-28T11:51:30;22.90;63.00
56300;DHT22;42209;6.376;-10.782;2023-01-28T11:57:34;23.40;71.60
56300;DHT22;42209;6.376;-10.782;2023-01-28T12:09:02;23.30;61.80
56300;DHT22;42209;6.376;-10.782;2023-01-28T12:20:07;22.90;55.70
56300;DHT22;42209;6.376;-10.782;2023-01-28T12:23:23;22.80;54.50
56300;DHT22;42209;6.376;-10.782;2023-01-28T12:25:34;22.80;53.70
56300;DHT22;42209;6.376;-10.782;2023-01-28T12:28:43;22.80;53.30
56300;DHT22;42209;6.376;-10.782;2023-01-28T12:42:09;22.70;51.40
56300;DHT22;42209;6.376;-10.782;2023-01-28T12:44:45;22.60;51.00
56300;DHT22;42209;6.376;-10.782;2023-01-28T12:47:27;22.50;50.50
56300;DHT22;42209;6.376;-10.782;2023-01-28T12:50:03;22.50;50.00
56300;DHT22;42209;6.376;-10.782;2023-01-28T12:52:41;22.50;49.40
56300;DHT22;42209;6.376;-10.782;2023-01-28T12:55:17;22.50;49.40
56300;DHT22;42209;6.376;-10.782;2023-01-28T12:57:47;22.50;50.20
56300;DHT22;42209;6.376;-10.782;2023-01-28T13:05:53;22.40;48.80
56300;DHT22;42209;6.376;-10.782;2023-01-28T13:08:27;22.40;48.80
56300;DHT22;42209;6.376;-10.782;2023-01-28T13:11:00;22.40;48.50
56300;DHT22;42209;6.376;-10.782;2023-01-28T13:13:32;22.40;47.70
56300;DHT22;42209;6.376;-10.782;2023-01-28T13:16:02;22.30;47.60
56300;DHT22;42209;6.376;-10.782;2023-01-28T13:18:44;22.40;51.90
56300;DHT22;42209;6.376;-10.782;2023-01-28T13:21:29;22.60;56.80
56300;DHT22;42209;6.376;-10.782;2023-01-28T13:31:55;23.30;66.40
56300;DHT22;42209;6.376;-10.782;2023-01-28T13:37:43;23.40;67.70
56300;DHT22;42209;6.376;-10.782;2023-01-28T13:42:41;23.20;59.10
56300;DHT22;42209;6.376;-10.782;2023-01-28T13:47:46;22.90;55.60
56300;DHT22;42209;6.376;-10.782;2023-01-28T13:50:32;22.80;54.60
56300;DHT22;42209;6.376;-10.782;2023-01-28T13:53:21;22.80;53.50
56300;DHT22;42209;6.376;-10.782;2023-01-28T13:55:54;22.70;52.30
56300;DHT22;42209;6.376;-10.782;2023-01-28T14:12:17;22.50;48.60
56300;DHT22;42209;6.376;-10.782;2023-01-28T14:20:25;22.40;47.10
56300;DHT22;42209;6.376;-10.782;2023-01-28T14:23:01;22.30;47.20
56300;DHT22;42209;6.376;-10.782;2023-01-28T14:28:11;22.40;46.70
56300;DHT22;42209;6.376;-10.782;2023-01-28T14:31:00;22.40;46.80
56300;DHT22;42209;6.376;-10.782;2023-01-28T14:33:32;22.30;46.20
56300;DHT22;42209;6.376;-10.782;2023-01-28T14:36:02;22.30;47.60
56300;DHT22;42209;6.376;-10.782;2023-01-28T14:38:37;22.50;52.60
56300;DHT22;42209;6.376;-10.782;2023-01-28T14:41:07;22.70;56.40
56300;DHT22;42209;6.376;-10.782;2023-01-28T14:43:37;22.90;59.60
56300;DHT22;42209;6.376;-10.782;2023-01-28T14:46:54;23.00;61.10
56300;DHT22;42209;6.376;-10.782;2023-01-28T14:49:39;23.20;63.30
56300;DHT22;42209;6.376;-10.782;2023-01-28T14:57:48;23.50;66.10
56300;DHT22;42209;6.376;-10.782;2023-01-28T15:00:37;23.40;62.00
56300;DHT22;42209;6.376;-10.782;2023-01-28T15:03:17;23.20;60.70
56300;DHT22;42209;6.376;-10.782;2023-01-28T15:06:16;23.20;60.00
56300;DHT22;42209;6.376;-10.782;2023-01-28T15:08:44;23.10;59.50
56300;DHT22;42209;6.376;-10.782;2023-01-28T15:11:19;23.00;59.20
56300;DHT22;42209;6.376;-10.782;2023-01-28T15:13:53;23.00;58.90
56300;DHT22;42209;6.376;-10.782;2023-01-28T15:16:27;23.00;58.60
56300;DHT22;42209;6.376;-10.782;2023-01-28T15:18:59;22.90;57.80
56300;DHT22;42209;6.376;-10.782;2023-01-28T15:21:29;22.90;57.80
56300;DHT22;42209;6.376;-10.782;2023-01-28T15:23:59;22.90;56.70
56300;DHT22;42209;6.376;-10.782;2023-01-28T15:26:30;22.80;56.10
56300;DHT22;42209;6.376;-10.782;2023-01-28T15:29:00;22.80;55.20
56300;DHT22;42209;6.376;-10.782;2023-01-28T15:31:33;22.90;55.00
56300;DHT22;42209;6.376;-10.782;2023-01-28T15:36:38;22.80;53.30
56300;DHT22;42209;6.376;-10.782;2023-01-28T15:39:17;22.80;52.80
56300;DHT22;42209;6.376;-10.782;2023-01-28T15:41:57;22.80;52.10
56300;DHT22;42209;6.376;-10.782;2023-01-28T15:47:22;22.70;50.70
56300;DHT22;42209;6.376;-10.782;2023-01-28T15:49:54;22.70;50.20
56300;DHT22;42209;6.376;-10.782;2023-01-28T15:52:34;22.70;49.30
56300;DHT22;42209;6.376;-10.782;2023-01-28T15:55:04;22.70;48.60
56300;DHT22;42209;6.376;-10.782;2023-01-28T15:57:34;22.60;48.30
56300;DHT22;42209;6.376;-10.782;2023-01-28T16:02:48;22.60;47.30
56300;DHT22;42209;6.376;-10.782;2023-01-28T16:05:37;22.60;46.80
56300;DHT22;42209;6.376;-10.782;2023-01-28T16:08:11;22.60;46.60
56300;DHT22;42209;6.376;-10.782;2023-01-28T16:10:52;22.70;46.70
56300;DHT22;42209;6.376;-10.782;2023-01-28T16:13:23;22.60;46.00
56300;DHT22;42209;6.376;-10.782;2023-01-28T16:15:54;22.60;45.60
56300;DHT22;42209;6.376;-10.782;2023-01-28T16:20:51;22.50;45.00
56300;DHT22;42209;6.376;-10.782;2023-01-28T16:23:21;22.60;44.70
56300;DHT22;42209;6.376;-10.782;2023-01-28T16:26:23;22.60;44.70
56300;DHT22;42209;6.376;-10.782;2023-01-28T16:28:52;22.50;44.60
56300;DHT22;42209;6.376;-10.782;2023-01-28T16:31:20;22.60;44.30
56300;DHT22;42209;6.376;-10.782;2023-01-28T16:33:49;22.50;43.90
56300;DHT22;42209;6.376;-10.782;2023-01-28T16:36:17;22.50;44.30
56300;DHT22;42209;6.376;-10.782;2023-01-28T16:38:45;22.60;44.60
56300;DHT22;42209;6.376;-10.782;2023-01-28T16:41:24;22.50;44.60
56300;DHT22;42209;6.376;-10.782;2023-01-28T16:43:53;22.60;44.10
56300;DHT22;42209;6.376;-10.782;2023-01-28T16:46:26;22.50;43.90
56300;DHT22;42209;6.376;-10.782;2023-01-28T16:48:54;22.50;43.60
56300;DHT22;42209;6.376;-10.782;2023-01-28T16:51:23;22.50;43.60
56300;DHT22;42209;6.376;-10.782;2023-01-28T16:53:51;22.50;43.20
56300;DHT22;42209;6.376;-10.782;2023-01-28T16:56:22;22.50;42.90
56300;DHT22;42209;6.376;-10.782;2023-01-28T16:59:17;22.50;42.90
56300;DHT22;42209;6.376;-10.782;2023-01-28T17:01:46;22.50;43.20
56300;DHT22;42209;6.376;-10.782;2023-01-28T17:04:15;22.60;43.30
56300;DHT22;42209;6.376;-10.782;2023-01-28T17:06:44;22.60;43.20
56300;DHT22;42209;6.376;-10.782;2023-01-28T17:09:13;22.60;43.40
56300;DHT22;42209;6.376;-10.782;2023-01-28T17:11:41;22.50;43.00
56300;DHT22;42209;6.376;-10.782;2023-01-28T17:14:10;22.50;42.80
56300;DHT22;42209;6.376;-10.782;2023-01-28T17:16:38;22.50;42.50
56300;DHT22;42209;6.376;-10.782;2023-01-28T17:19:06;22.40;42.40
56300;DHT22;42209;6.376;-10.782;2023-01-28T17:21:35;22.50;42.20
56300;DHT22;42209;6.376;-10.782;2023-01-28T17:24:04;22.50;42.00
56300;DHT22;42209;6.376;-10.782;2023-01-28T17:26:32;22.50;41.90
56300;DHT22;42209;6.376;-10.782;2023-01-28T17:29:01;22.50;41.80
56300;DHT22;42209;6.376;-10.782;2023-01-28T17:31:29;22.50;41.90
56300;DHT22;42209;6.376;-10.782;2023-01-28T17:33:58;22.50;41.80
56300;DHT22;42209;6.376;-10.782;2023-01-28T17:36:27;22.50;41.80
56300;DHT22;42209;6.376;-10.782;2023-01-28T17:38:55;22.50;41.40
56300;DHT22;42209;6.376;-10.782;2023-01-28T17:41:23;22.50;41.50
56300;DHT22;42209;6.376;-10.782;2023-01-28T17:43:53;22.50;41.60
56300;DHT22;42209;6.376;-10.782;2023-01-28T17:46:23;22.50;41.40
56300;DHT22;42209;6.376;-10.782;2023-01-28T17:48:52;22.50;41.30
56300;DHT22;42209;6.376;-10.782;2023-01-28T17:51:21;22.50;41.20
56300;DHT22;42209;6.376;-10.782;2023-01-28T17:53:51;22.50;41.00
56300;DHT22;42209;6.376;-10.782;2023-01-28T17:56:26;22.50;40.90
56300;DHT22;42209;6.376;-10.782;2023-01-28T17:58:57;22.50;41.30
56300;DHT22;42209;6.376;-10.782;2023-01-28T18:01:26;22.50;41.00